Time;durP1;ratioP1;P1;durP2;ratioP2;P2;SDS_P1;SDS_P2;PMS_P1;PMS_P2;Temp;Humidity;BMP_temperature;BMP_pressure;BME280_temperature;BME280_humidity;BME280_pressure;Samples;Min_cycle;Max_cycle;Signal;HPM_P1;HPM_P2
2022/05/12 00:01:41;;;;;;;1.13;0.90;;;15.30;57.80;;;;;;5008942;28;20197;-57
2022/05/12 00:04:12;;;;;;;1.58;0.88;;;15.30;57.80;;;;;;5005773;28;20193;-57
2022/05/12 00:06:42;;;;;;;1.52;0.82;;;15.40;57.80;;;;;;5009670;28;20220;-57
2022/05/12 00:09:13;;;;;;;1.55;0.98;;;15.40;57.70;;;;;;5008372;28;20231;-57
2022/05/12 00:11:43;;;;;;;0.98;0.70;;;15.40;57.70;;;;;;5008081;28;20193;-57
2022/05/12 00:14:14;;;;;;;1.27;0.95;;;15.50;57.70;;;;;;5008480;28;20193;-57
2022/05/12 00:16:47;;;;;;;1.05;0.75;;;15.50;57.70;;;;;;5008568;28;20192;-57
2022/05/12 00:19:17;;;;;;;1.00;0.90;;;15.50;57.60;;;;;;5006283;28;20248;-57
2022/05/12 00:21:48;;;;;;;1.48;0.70;;;15.60;57.70;;;;;;5008201;28;20726;-57
2022/05/12 00:24:19;;;;;;;0.93;0.75;;;15.60;57.60;;;;;;5008494;28;20197;-57
2022/05/12 00:26:49;;;;;;;2.03;0.77;;;15.60;57.50;;;;;;5007845;28;20209;-57
2022/05/12 00:29:20;;;;;;;1.15;0.77;;;15.70;57.50;;;;;;5008142;28;20317;-58
2022/05/12 00:31:52;;;;;;;1.33;0.80;;;15.70;57.40;;;;;;5006375;28;20259;-57
2022/05/12 00:34:24;;;;;;;0.60;0.60;;;15.80;57.40;;;;;;5008807;28;20189;-57
2022/05/12 00:36:54;;;;;;;1.52;0.80;;;15.80;57.30;;;;;;5008498;28;20236;-58
2022/05/12 00:39:37;;;;;;;0.82;0.70;;;15.90;57.30;;;;;;5007841;28;20275;-58
2022/05/12 00:42:08;;;;;;;1.58;0.70;;;15.90;57.20;;;;;;5012551;28;20201;-58
2022/05/12 00:44:38;;;;;;;1.02;0.77;;;15.90;57.10;;;;;;5011946;28;20238;-58
2022/05/12 00:47:11;;;;;;;0.98;0.60;;;16.00;57.10;;;;;;5012278;28;20220;-57
2022/05/12 00:49:42;;;;;;;1.48;0.80;;;16.00;57.10;;;;;;5007554;28;20260;-57
2022/05/12 00:52:17;;;;;;;1.05;0.80;;;16.10;57.10;;;;;;5012510;28;20224;-58
2022/05/12 00:54:51;;;;;;;1.23;0.70;;;16.10;56.90;;;;;;5011951;28;20282;-58
2022/05/12 00:57:27;;;;;;;2.20;0.80;;;16.10;56.90;;;;;;5011285;28;20224;-58
2022/05/12 00:59:59;;;;;;;2.15;0.70;;;16.10;56.90;;;;;;5011684;28;20216;-57
2022/05/12 01:02:34;;;;;;;1.08;0.63;;;16.20;57.00;;;;;;5012366;28;20199;-58
2022/05/12 01:05:06;;;;;;;0.98;0.77;;;16.20;58.10;;;;;;5012382;28;20241;-57
2022/05/12 01:07:39;;;;;;;0.98;0.70;;;16.30;58.10;;;;;;5011183;28;20196;-57
2022/05/12 01:10:11;;;;;;;0.85;0.70;;;16.30;57.70;;;;;;5011814;28;20418;-57
2022/05/12 01:12:45;;;;;;;1.08;0.63;;;16.40;57.60;;;;;;5011645;28;20588;-57
2022/05/12 01:15:17;;;;;;;1.30;0.80;;;16.40;57.10;;;;;;5011858;28;20219;-57
2022/05/12 01:17:50;;;;;;;0.95;0.85;;;16.50;57.00;;;;;;5011661;28;20752;-58
2022/05/12 01:20:20;;;;;;;1.33;0.80;;;16.50;56.90;;;;;;5011309;28;20290;-57
2022/05/12 01:22:56;;;;;;;0.95;0.80;;;16.50;56.80;;;;;;5011391;28;20212;-58
2022/05/12 01:25:32;;;;;;;1.40;0.63;;;16.60;56.80;;;;;;5011312;28;20239;-58
2022/05/12 01:28:03;;;;;;;1.60;0.93;;;16.60;56.80;;;;;;5010568;28;20193;-57
2022/05/12 01:30:33;;;;;;;1.25;0.70;;;16.70;56.80;;;;;;5011438;28;20638;-57
2022/05/12 01:33:04;;;;;;;0.80;0.70;;;16.70;56.70;;;;;;5010714;28;20229;-57
2022/05/12 01:35:35;;;;;;;1.00;0.77;;;16.80;56.60;;;;;;5011744;28;20201;-57
2022/05/12 01:38:05;;;;;;;1.02;0.80;;;16.80;56.60;;;;;;5012266;28;20237;-58
2022/05/12 01:40:38;;;;;;;1.45;0.80;;;16.90;56.50;;;;;;5011319;28;20240;-57
2022/05/12 01:43:08;;;;;;;0.75;0.65;;;16.90;56.40;;;;;;5011946;28;20270;-58
2022/05/12 01:45:39;;;;;;;0.65;0.60;;;16.90;56.30;;;;;;5010920;28;20189;-57
2022/05/12 01:48:12;;;;;;;1.70;0.90;;;17.00;56.30;;;;;;5011676;28;20622;-57
2022/05/12 01:50:44;;;;;;;1.30;0.70;;;17.10;56.20;;;;;;5011252;28;20256;-57
2022/05/12 01:53:17;;;;;;;1.30;0.63;;;17.10;56.40;;;;;;5009811;28;20201;-57
2022/05/12 01:55:49;;;;;;;1.13;0.60;;;17.10;55.90;;;;;;5011407;28;20565;-57
2022/05/12 01:58:21;;;;;;;0.93;0.60;;;17.20;55.90;;;;;;5010368;28;20634;-57
2022/05/12 02:00:52;;;;;;;1.70;0.80;;;17.30;55.90;;;;;;5007959;28;20221;-57
2022/05/12 02:03:23;;;;;;;0.80;0.77;;;17.30;55.80;;;;;;5010652;28;20295;-57
2022/05/12 02:05:53;;;;;;;1.30;0.70;;;17.30;55.80;;;;;;5011603;28;20243;-57
2022/05/12 02:08:24;;;;;;;1.35;0.60;;;17.40;55.70;;;;;;5009873;28;20200;-57
2022/05/12 02:10:56;;;;;;;1.25;0.50;;;17.40;55.60;;;;;;5010718;28;20249;-57
2022/05/12 02:13:27;;;;;;;0.60;0.57;;;17.50;55.50;;;;;;5010482;28;20189;-57
2022/05/12 02:15:59;;;;;;;0.73;0.70;;;17.50;55.40;;;;;;5011676;28;20303;-57
2022/05/12 02:18:30;;;;;;;1.73;0.70;;;17.50;55.30;;;;;;5010484;28;20707;-57
2022/05/12 02:21:00;;;;;;;1.42;0.60;;;17.60;55.30;;;;;;5010678;28;20547;-57
2022/05/12 02:23:31;;;;;;;0.80;0.68;;;17.60;55.30;;;;;;5010615;28;20255;-58
2022/05/12 02:26:03;;;;;;;1.00;0.70;;;17.70;55.30;;;;;;5010112;28;20197;-57
2022/05/12 02:28:34;;;;;;;0.75;0.57;;;17.70;55.20;;;;;;5009284;28;20193;-57
2022/05/12 02:31:04;;;;;;;1.00;0.70;;;17.80;55.20;;;;;;5009367;28;20279;-57
2022/05/12 02:33:35;;;;;;;1.15;0.85;;;17.80;55.10;;;;;;5010387;28;20217;-57
2022/05/12 02:36:05;;;;;;;0.93;0.60;;;17.90;55.10;;;;;;5010071;28;20192;-57
2022/05/12 02:38:36;;;;;;;0.73;0.50;;;17.90;55.00;;;;;;5009726;28;20193;-57
2022/05/12 02:41:09;;;;;;;0.60;0.60;;;17.90;55.00;;;;;;5009960;28;20267;-57
2022/05/12 02:43:40;;;;;;;0.80;0.50;;;18.00;54.90;;;;;;5010005;28;20232;-58
2022/05/12 02:46:14;;;;;;;0.73;0.57;;;18.00;54.80;;;;;;5009252;28;20247;-57
2022/05/12 02:48:46;;;;;;;0.73;0.60;;;18.10;54.80;;;;;;5010275;28;20200;-57
2022/05/12 02:51:17;;;;;;;0.93;0.70;;;18.10;54.80;;;;;;5010512;28;20220;-57
2022/05/12 02:53:48;;;;;;;0.93;0.50;;;18.20;54.80;;;;;;5007918;28;20193;-57
2022/05/12 02:56:20;;;;;;;1.20;0.68;;;18.20;54.80;;;;;;5008111;28;20201;-57
2022/05/12 02:58:51;;;;;;;0.80;0.80;;;18.20;54.70;;;;;;5008827;28;20770;-57
2022/05/12 03:01:21;;;;;;;0.75;0.60;;;18.20;54.60;;;;;;5008248;28;20197;-57
2022/05/12 03:03:53;;;;;;;2.70;0.65;;;18.30;54.70;;;;;;5008081;28;20201;-57
2022/05/12 03:06:23;;;;;;;1.15;0.75;;;18.30;54.60;;;;;;5009129;28;20676;-57
2022/05/12 03:08:54;;;;;;;1.17;0.65;;;18.40;54.60;;;;;;5008376;28;20266;-57
2022/05/12 03:11:27;;;;;;;1.55;0.70;;;18.40;54.50;;;;;;5008747;28;20244;-57
2022/05/12 03:13:59;;;;;;;0.68;0.60;;;18.50;54.50;;;;;;5008625;28;20201;-57
2022/05/12 03:16:29;;;;;;;1.33;0.60;;;18.50;54.50;;;;;;5009769;28;20212;-57
2022/05/12 03:19:00;;;;;;;0.60;0.47;;;18.50;54.40;;;;;;5010064;28;20287;-56
2022/05/12 03:21:31;;;;;;;0.85;0.50;;;18.60;54.40;;;;;;5009225;28;20220;-58
2022/05/12 03:24:01;;;;;;;1.08;0.70;;;18.60;54.40;;;;;;5009849;28;20247;-57
2022/05/12 03:26:34;;;;;;;2.35;0.90;;;18.60;54.40;;;;;;5009364;28;20347;-58
2022/05/12 03:29:04;;;;;;;1.48;0.65;;;18.70;54.30;;;;;;5008959;28;20244;-58
2022/05/12 03:31:36;;;;;;;1.30;0.70;;;18.70;54.20;;;;;;5009091;28;20227;-58
2022/05/12 03:34:07;;;;;;;0.80;0.60;;;18.70;54.20;;;;;;5008832;28;20200;-57
2022/05/12 03:36:39;;;;;;;0.85;0.70;;;18.80;54.20;;;;;;5007198;28;20196;-57
2022/05/12 03:39:09;;;;;;;1.15;0.60;;;18.80;54.20;;;;;;5007572;28;20217;-57
2022/05/12 03:41:42;;;;;;;2.45;0.60;;;18.80;54.10;;;;;;5007576;28;20189;-58
2022/05/12 03:46:59;;;;;;;0.70;0.57;;;18.90;53.90;;;;;;5008107;28;20641;-58
2022/05/12 03:49:29;;;;;;;1.00;0.55;;;18.90;53.90;;;;;;5007558;28;20279;-58
2022/05/12 03:52:00;;;;;;;0.50;0.50;;;19.00;53.80;;;;;;5007797;28;20314;-57
2022/05/12 03:54:31;;;;;;;1.15;0.50;;;19.00;53.70;;;;;;5004732;28;20244;-57
2022/05/12 03:57:03;;;;;;;1.38;0.70;;;19.00;53.60;;;;;;5006774;28;20259;-57
2022/05/12 03:59:34;;;;;;;0.57;0.50;;;19.10;53.60;;;;;;5007046;28;20296;-57
2022/05/12 04:02:04;;;;;;;1.08;0.50;;;19.10;53.60;;;;;;5008227;28;20201;-58
2022/05/12 04:04:35;;;;;;;0.77;0.50;;;19.10;53.50;;;;;;5006092;28;20276;-58
2022/05/12 04:07:06;;;;;;;0.68;0.50;;;19.20;53.40;;;;;;5009132;28;20243;-58
2022/05/12 04:09:37;;;;;;;1.25;0.65;;;19.20;53.30;;;;;;5007551;28;20217;-57
2022/05/12 04:12:11;;;;;;;0.73;0.60;;;19.20;53.30;;;;;;5005511;28;20306;-57
2022/05/12 04:14:42;;;;;;;0.50;0.50;;;19.20;53.20;;;;;;5006816;28;20201;-58
2022/05/12 04:17:15;;;;;;;1.50;0.60;;;19.20;53.30;;;;;;5007597;28;20260;-58
2022/05/12 04:19:47;;;;;;;1.55;0.50;;;19.30;53.30;;;;;;5006440;28;20228;-58
2022/05/12 04:22:17;;;;;;;0.88;0.60;;;19.30;53.80;;;;;;5006508;28;20279;-57
2022/05/12 04:24:48;;;;;;;0.70;0.50;;;19.30;53.20;;;;;;5008273;28;20264;-57
2022/05/12 04:27:21;;;;;;;0.45;0.40;;;19.30;53.00;;;;;;5007760;28;20204;-58
2022/05/12 04:29:51;;;;;;;1.08;0.80;;;19.40;53.10;;;;;;5007179;28;20247;-58
2022/05/12 04:32:22;;;;;;;1.15;0.60;;;19.40;53.10;;;;;;5005881;28;20225;-58
2022/05/12 04:37:40;;;;;;;0.70;0.70;;;19.40;53.00;;;;;;4991850;28;20204;-57
2022/05/12 04:40:12;;;;;;;0.60;0.60;;;19.40;53.10;;;;;;4991606;28;20272;-57
2022/05/12 04:42:45;;;;;;;1.17;0.60;;;19.40;53.10;;;;;;4991859;28;20638;-57
2022/05/12 04:45:16;;;;;;;0.93;0.60;;;19.40;53.20;;;;;;4991388;28;20261;-58
2022/05/12 04:47:48;;;;;;;1.67;0.80;;;19.40;53.30;;;;;;4991721;28;20248;-58
2022/05/12 04:50:20;;;;;;;0.88;0.88;;;19.40;53.50;;;;;;4990862;28;20222;-58
2022/05/12 04:52:51;;;;;;;1.13;0.80;;;19.40;53.50;;;;;;4991377;28;20228;-57
2022/05/12 04:55:22;;;;;;;0.85;0.73;;;19.40;53.50;;;;;;4991180;28;20201;-57
2022/05/12 04:57:56;;;;;;;1.08;0.88;;;19.50;53.60;;;;;;4990038;28;20789;-58
2022/05/12 05:00:29;;;;;;;2.05;0.80;;;19.40;53.40;;;;;;4991241;28;20713;-58
2022/05/12 05:03:00;;;;;;;1.30;1.10;;;19.40;53.20;;;;;;4991486;28;20229;-58
2022/05/12 05:05:30;;;;;;;1.40;0.90;;;19.40;53.00;;;;;;4990932;28;20205;-59
2022/05/12 05:08:01;;;;;;;0.98;0.90;;;19.40;53.20;;;;;;5000122;28;20197;-59
2022/05/12 05:10:32;;;;;;;1.20;1.00;;;19.40;53.20;;;;;;5007023;28;20229;-59
2022/05/12 05:13:05;;;;;;;1.35;1.00;;;19.40;52.90;;;;;;5008021;28;20703;-59
2022/05/12 05:15:36;;;;;;;1.27;1.00;;;19.40;52.80;;;;;;5007012;28;20200;-58
2022/05/12 05:18:07;;;;;;;1.42;1.33;;;19.40;52.70;;;;;;5008137;28;20208;-59
2022/05/12 05:20:38;;;;;;;1.20;1.10;;;19.40;52.50;;;;;;5008142;28;20209;-59
2022/05/12 05:23:08;;;;;;;1.38;1.13;;;19.40;52.50;;;;;;5007819;28;20197;-59
2022/05/12 05:25:39;;;;;;;2.25;1.10;;;19.40;52.40;;;;;;5006757;28;20197;-59
2022/05/12 05:28:13;;;;;;;1.20;1.10;;;19.40;52.40;;;;;;5010548;28;20197;-59
2022/05/12 05:30:44;;;;;;;1.17;1.08;;;19.40;52.40;;;;;;5011108;28;20216;-58
2022/05/12 05:33:14;;;;;;;1.95;1.20;;;19.40;52.40;;;;;;5011422;28;20254;-58
2022/05/12 05:35:47;;;;;;;1.48;1.20;;;19.40;52.40;;;;;;5011127;28;20193;-59
2022/05/12 05:38:18;;;;;;;1.65;1.10;;;19.30;52.30;;;;;;5011340;28;20224;-59
2022/05/12 05:40:48;;;;;;;1.35;1.20;;;19.30;52.30;;;;;;5011936;28;20390;-59
2022/05/12 05:43:21;;;;;;;1.73;1.35;;;19.30;52.30;;;;;;5012441;28;20232;-58
2022/05/12 05:45:52;;;;;;;1.17;1.08;;;19.30;52.20;;;;;;5007456;28;20197;-59
2022/05/12 05:48:23;;;;;;;1.60;1.27;;;19.30;52.20;;;;;;5010499;28;20199;-58
2022/05/12 05:53:41;;;;;;;1.65;1.50;;;19.20;52.00;;;;;;5010784;28;20263;-59
2022/05/12 05:56:15;;;;;;;2.00;1.45;;;19.20;52.10;;;;;;5009714;28;20587;-60
2022/05/12 05:58:48;;;;;;;2.10;1.63;;;19.20;52.20;;;;;;5009638;28;20204;-60
2022/05/12 06:01:19;;;;;;;1.70;1.60;;;19.20;52.30;;;;;;5009752;28;20707;-60
2022/05/12 06:03:49;;;;;;;1.52;1.40;;;19.10;52.30;;;;;;5009189;28;20259;-59
2022/05/12 06:06:20;;;;;;;1.90;1.80;;;19.10;52.40;;;;;;5009497;28;20969;-60
2022/05/12 06:08:51;;;;;;;2.13;1.92;;;19.10;52.40;;;;;;5009696;28;20217;-60
2022/05/12 06:11:22;;;;;;;2.10;1.63;;;19.10;52.50;;;;;;5009259;28;20262;-60
2022/05/12 06:13:55;;;;;;;3.03;1.98;;;19.00;52.50;;;;;;5010094;28;20196;-60
2022/05/12 06:16:25;;;;;;;2.42;1.60;;;19.00;52.60;;;;;;5009317;28;20224;-60
2022/05/12 06:18:56;;;;;;;2.15;1.70;;;19.00;52.60;;;;;;5009942;28;20283;-59
2022/05/12 06:21:26;;;;;;;1.77;1.52;;;19.00;52.70;;;;;;5009908;28;20247;-58
2022/05/12 06:23:57;;;;;;;2.08;1.73;;;19.00;52.80;;;;;;5009320;28;20210;-58
2022/05/12 06:26:27;;;;;;;2.47;1.65;;;18.90;52.80;;;;;;5008924;28;20206;-58
2022/05/12 06:29:00;;;;;;;2.78;1.55;;;18.90;52.80;;;;;;5008931;28;20909;-59
2022/05/12 06:31:32;;;;;;;2.72;2.00;;;18.90;52.90;;;;;;5009086;28;20772;-59
2022/05/12 06:34:03;;;;;;;2.08;1.73;;;18.80;53.00;;;;;;5009854;28;20205;-59
2022/05/12 06:36:34;;;;;;;2.10;1.88;;;18.80;53.00;;;;;;5009012;28;20221;-58
2022/05/12 06:39:05;;;;;;;2.30;2.10;;;18.80;53.00;;;;;;5009741;28;20224;-59
2022/05/12 06:41:36;;;;;;;2.50;2.20;;;18.70;53.10;;;;;;5007604;28;20197;-59
2022/05/12 06:44:09;;;;;;;2.38;1.85;;;18.70;53.10;;;;;;5001597;28;20224;-58
2022/05/12 06:46:40;;;;;;;2.10;1.90;;;18.70;53.20;;;;;;4993386;28;20226;-59
2022/05/12 06:49:11;;;;;;;2.08;1.90;;;18.60;53.20;;;;;;4993184;28;20272;-59
2022/05/12 06:51:43;;;;;;;2.45;2.20;;;18.60;53.30;;;;;;4993125;28;20307;-59
2022/05/12 06:54:13;;;;;;;2.38;2.13;;;18.60;53.30;;;;;;4993905;28;20209;-59
2022/05/12 06:56:44;;;;;;;2.75;2.53;;;18.60;53.40;;;;;;4991625;28;20237;-59
2022/05/12 06:59:17;;;;;;;2.20;1.90;;;18.60;53.40;;;;;;5006568;28;20245;-59
2022/05/12 07:01:47;;;;;;;1.90;1.80;;;18.50;53.50;;;;;;5009758;28;20193;-59
2022/05/12 07:04:18;;;;;;;2.33;1.90;;;18.50;53.50;;;;;;5007840;28;20263;-58
2022/05/12 07:06:49;;;;;;;1.95;1.80;;;18.50;53.60;;;;;;5007945;28;20552;-59
2022/05/12 07:09:20;;;;;;;2.20;1.90;;;18.50;53.60;;;;;;5009061;28;20252;-58
2022/05/12 07:11:51;;;;;;;2.95;2.00;;;18.50;53.60;;;;;;5008633;28;20248;-58
2022/05/12 07:14:23;;;;;;;2.20;2.00;;;18.40;53.60;;;;;;5007790;28;20224;-59
2022/05/12 07:16:53;;;;;;;2.30;1.80;;;18.40;53.70;;;;;;5007121;28;20196;-59
2022/05/12 07:19:24;;;;;;;2.17;1.88;;;18.40;53.80;;;;;;5007964;28;20216;-59
2022/05/12 07:27:27;;;;;;;2.70;1.92;;;18.30;53.80;;;;;;5007501;28;20208;-58
2022/05/12 07:30:00;;;;;;;2.30;2.10;;;18.20;53.80;;;;;;5009098;28;20232;-59
2022/05/12 07:32:30;;;;;;;2.28;2.08;;;18.20;53.90;;;;;;5007957;28;20283;-59
2022/05/12 07:35:01;;;;;;;1.88;1.67;;;18.20;53.90;;;;;;5008854;28;20649;-58
2022/05/12 07:37:32;;;;;;;3.78;1.98;;;18.10;53.90;;;;;;5008750;28;20563;-59
2022/05/12 07:40:02;;;;;;;1.88;1.77;;;18.10;54.00;;;;;;5008626;28;20689;-59
2022/05/12 07:42:33;;;;;;;2.17;1.92;;;18.10;54.10;;;;;;5008312;28;20197;-59
2022/05/12 07:45:06;;;;;;;3.30;2.10;;;18.10;54.10;;;;;;5008823;28;20193;-59
2022/05/12 07:47:36;;;;;;;2.20;1.60;;;18.10;54.20;;;;;;5003652;28;20211;-58
2022/05/12 07:50:07;;;;;;;2.65;2.17;;;18.00;54.30;;;;;;5007712;28;20712;-59
2022/05/12 07:52:41;;;;;;;2.78;1.92;;;18.00;54.30;;;;;;5008786;28;20256;-58
2022/05/12 07:55:12;;;;;;;3.15;1.77;;;18.00;54.30;;;;;;5008822;28;20189;-59
2022/05/12 07:57:42;;;;;;;2.08;1.88;;;18.00;54.40;;;;;;5009289;28;20189;-59
2022/05/12 08:00:16;;;;;;;1.80;1.70;;;18.00;54.40;;;;;;5009768;28;20267;-59
2022/05/12 08:02:46;;;;;;;2.20;2.00;;;17.90;54.40;;;;;;5009392;28;20224;-59
2022/05/12 08:05:17;;;;;;;2.33;1.90;;;17.90;54.40;;;;;;5008880;28;20291;-59
2022/05/12 08:07:48;;;;;;;2.53;1.88;;;17.80;54.40;;;;;;5009504;28;20232;-59
2022/05/12 08:10:19;;;;;;;2.00;1.80;;;17.80;54.40;;;;;;5008342;28;20223;-58
2022/05/12 08:12:50;;;;;;;2.67;2.00;;;17.80;54.50;;;;;;5008397;28;20216;-59
2022/05/12 08:15:25;;;;;;;2.15;1.92;;;17.80;54.50;;;;;;5009385;28;20197;-59
2022/05/12 08:17:56;;;;;;;2.30;2.10;;;17.80;54.60;;;;;;5009766;28;20196;-59
2022/05/12 08:20:27;;;;;;;2.97;1.75;;;17.80;54.60;;;;;;5009133;28;20216;-59
2022/05/12 08:22:58;;;;;;;2.08;1.88;;;17.70;54.60;;;;;;5008374;28;20193;-59
2022/05/12 08:25:29;;;;;;;2.50;1.92;;;17.70;54.60;;;;;;5009471;28;20247;-59
2022/05/12 08:27:59;;;;;;;4.22;1.90;;;17.70;54.60;;;;;;5008164;28;20242;-59
2022/05/12 08:30:32;;;;;;;1.80;1.70;;;17.70;54.70;;;;;;5008345;28;20628;-59
2022/05/12 08:33:03;;;;;;;2.38;1.80;;;17.70;54.80;;;;;;5008776;28;20590;-58
2022/05/12 08:35:33;;;;;;;3.80;2.28;;;17.60;54.70;;;;;;5009383;28;20196;-59
2022/05/12 08:38:04;;;;;;;2.95;2.30;;;17.60;54.70;;;;;;5008663;28;20189;-59
2022/05/12 08:40:46;;;;;;;2.80;2.10;;;17.60;54.80;;;;;;5007792;28;20282;-59
2022/05/12 08:43:19;;;;;;;3.15;2.03;;;17.60;54.80;;;;;;5008746;28;20205;-59
2022/05/12 08:45:53;;;;;;;2.92;2.08;;;17.50;54.80;;;;;;5008962;28;20193;-59
2022/05/12 08:48:23;;;;;;;3.40;2.13;;;17.50;54.80;;;;;;5007008;28;20749;-58
2022/05/12 08:50:55;;;;;;;4.15;2.70;;;17.50;54.80;;;;;;5007451;28;20299;-59
2022/05/12 08:53:28;;;;;;;3.03;2.00;;;17.50;54.80;;;;;;5008977;28;20260;-59
2022/05/12 08:56:00;;;;;;;4.00;2.33;;;17.50;54.90;;;;;;5008321;28;20290;-59
2022/05/12 08:58:35;;;;;;;2.95;2.28;;;17.50;54.90;;;;;;5008267;28;20193;-59
2022/05/12 09:01:11;;;;;;;3.28;2.20;;;17.40;54.80;;;;;;5002194;28;20286;-59
2022/05/12 09:03:55;;;;;;;3.67;2.50;;;17.40;54.90;;;;;;5012467;28;20224;-58
2022/05/12 09:06:32;;;;;;;3.75;2.50;;;17.40;54.90;;;;;;5012347;28;20279;-59
2022/05/12 09:09:07;;;;;;;3.47;2.42;;;17.40;54.90;;;;;;5011581;28;20282;-59
2022/05/12 09:11:44;;;;;;;4.10;2.22;;;17.30;54.80;;;;;;5011290;28;20192;-58
2022/05/12 09:14:19;;;;;;;2.58;2.20;;;17.30;54.80;;;;;;5011370;28;20553;-59
2022/05/12 09:16:56;;;;;;;5.10;2.47;;;17.30;54.90;;;;;;5011329;28;20192;-59
2022/05/12 09:19:26;;;;;;;3.05;2.25;;;17.30;54.90;;;;;;5011604;28;20231;-59
2022/05/12 09:21:57;;;;;;;2.65;2.13;;;17.30;55.00;;;;;;5012106;28;20247;-59
2022/05/12 09:24:28;;;;;;;3.38;2.78;;;17.30;55.00;;;;;;5011432;28;20598;-59
2022/05/12 09:27:12;;;;;;;3.22;2.50;;;17.30;55.00;;;;;;5011090;28;20201;-59
2022/05/12 09:29:47;;;;;;;5.25;2.70;;;17.20;55.00;;;;;;5011357;28;20274;-59
2022/05/12 09:32:26;;;;;;;2.90;2.10;;;17.20;55.00;;;;;;5012355;28;20238;-59
2022/05/12 09:35:27;;;;;;;4.60;2.70;;;17.20;55.00;;;;;;5011597;28;20212;-58
2022/05/12 09:37:58;;;;;;;3.97;2.40;;;17.10;54.90;;;;;;5011952;28;20262;-59
2022/05/12 09:40:39;;;;;;;3.22;2.53;;;17.10;55.00;;;;;;5011266;28;20637;-59
2022/05/12 09:43:21;;;;;;;4.55;2.50;;;17.10;55.00;;;;;;5009590;28;20196;-59
2022/05/12 09:46:05;;;;;;;3.72;2.28;;;17.10;55.00;;;;;;5011157;28;20240;-59
2022/05/12 09:48:40;;;;;;;3.67;2.53;;;17.00;55.00;;;;;;5011677;28;20324;-59
2022/05/12 09:51:35;;;;;;;4.07;2.80;;;17.00;55.00;;;;;;5010609;28;20197;-59
2022/05/12 09:54:31;;;;;;;3.38;2.50;;;17.00;55.00;;;;;;5006354;28;20252;-59
2022/05/12 09:57:15;;;;;;;4.53;2.75;;;17.00;55.00;;;;;;5011084;28;20336;-59
2022/05/12 09:59:53;;;;;;;4.10;2.58;;;17.00;55.00;;;;;;5010720;28;20213;-59
2022/05/12 10:08:18;;;;;;;3.70;2.65;;;16.90;55.00;;;;;;5011289;28;20208;-58
2022/05/12 10:10:54;;;;;;;4.80;2.70;;;16.90;55.00;;;;;;5011472;28;20213;-59
2022/05/12 10:13:33;;;;;;;3.38;2.28;;;16.90;55.10;;;;;;5009314;28;20227;-59
2022/05/12 10:16:03;;;;;;;3.55;2.20;;;16.90;55.10;;;;;;5010256;28;20727;-59
2022/05/12 10:18:42;;;;;;;4.47;2.65;;;16.80;55.10;;;;;;5010999;28;20247;-59
2022/05/12 10:21:20;;;;;;;3.35;2.40;;;16.80;55.10;;;;;;5011223;28;20189;-59
2022/05/12 10:24:02;;;;;;;3.97;2.47;;;16.80;55.10;;;;;;5010393;28;20829;-59
2022/05/12 10:26:39;;;;;;;2.90;2.45;;;16.80;55.10;;;;;;5011050;28;20189;-59
2022/05/12 10:29:22;;;;;;;3.80;2.50;;;16.80;55.10;;;;;;5010866;28;20266;-59
2022/05/12 10:32:07;;;;;;;4.13;2.50;;;16.70;55.10;;;;;;5010423;28;20217;-59
2022/05/12 10:34:47;;;;;;;3.78;2.17;;;16.70;55.10;;;;;;5010967;28;20263;-59
2022/05/12 10:37:33;;;;;;;3.58;2.63;;;16.80;55.10;;;;;;5010917;28;20201;-58
2022/05/12 10:40:18;;;;;;;4.03;2.17;;;16.70;55.10;;;;;;5011001;28;20213;-59
2022/05/12 10:42:57;;;;;;;3.47;2.45;;;16.70;55.10;;;;;;5010521;28;20193;-59
2022/05/12 10:45:30;;;;;;;4.30;2.67;;;16.70;55.70;;;;;;5010725;28;20189;-59
2022/05/12 10:48:23;;;;;;;3.72;2.33;;;16.70;55.10;;;;;;5010044;28;20255;-59
2022/05/12 10:51:02;;;;;;;4.45;2.42;;;16.70;55.20;;;;;;5009276;28;20707;-58
2022/05/12 10:53:52;;;;;;;4.15;2.60;;;16.60;55.10;;;;;;5009024;28;20852;-58
2022/05/12 10:56:33;;;;;;;3.72;2.45;;;16.60;55.10;;;;;;5006193;28;20192;-58
2022/05/12 10:59:22;;;;;;;3.38;2.20;;;16.60;55.10;;;;;;5008834;28;20255;-58
2022/05/12 11:01:57;;;;;;;3.28;2.10;;;16.60;55.20;;;;;;5009591;28;20193;-58
2022/05/12 11:04:34;;;;;;;4.40;2.50;;;16.50;55.10;;;;;;5009698;28;20196;-59
2022/05/12 11:07:09;;;;;;;4.82;2.63;;;16.60;55.20;;;;;;5010178;28;20239;-58
2022/05/12 11:09:48;;;;;;;3.75;2.40;;;16.50;55.20;;;;;;5010238;28;20244;-59
2022/05/12 11:12:24;;;;;;;2.60;2.05;;;16.50;55.20;;;;;;5009700;28;20236;-59
2022/05/12 11:14:58;;;;;;;3.20;2.38;;;16.50;55.20;;;;;;5009302;28;20189;-58
2022/05/12 11:17:36;;;;;;;3.60;2.50;;;16.50;55.20;;;;;;5009860;28;20204;-58
2022/05/12 11:20:25;;;;;;;3.35;2.28;;;16.50;55.20;;;;;;5009998;28;21119;-58
2022/05/12 11:23:15;;;;;;;3.92;2.50;;;16.50;55.20;;;;;;5010087;28;20232;-59
2022/05/12 11:26:00;;;;;;;3.42;2.20;;;16.50;55.20;;;;;;5009817;28;20240;-59
2022/05/12 11:31:42;;;;;;;3.58;2.10;;;16.50;55.30;;;;;;4928817;29;20254;-59
2022/05/12 11:34:17;;;;;;;2.72;2.20;;;16.40;55.20;;;;;;4929696;29;20748;-58
2022/05/12 11:36:49;;;;;;;3.28;2.10;;;16.40;55.30;;;;;;4973497;28;20266;-59
2022/05/12 11:39:31;;;;;;;3.05;2.00;;;16.40;55.30;;;;;;5009555;28;20217;-59
2022/05/12 11:42:28;;;;;;;3.28;2.17;;;16.40;55.30;;;;;;5009334;28;20661;-59
2022/05/12 11:45:01;;;;;;;3.25;2.00;;;16.30;55.30;;;;;;4980357;28;20211;-59
2022/05/12 11:48:12;;;;;;;2.53;2.30;;;16.30;55.30;;;;;;4992840;28;20280;-58
2022/05/12 11:51:14;;;;;;;3.20;2.20;;;16.30;55.30;;;;;;4991200;28;20213;-59
2022/05/12 11:53:57;;;;;;;2.40;1.80;;;16.30;55.40;;;;;;4969855;28;20584;-58
2022/05/12 11:56:44;;;;;;;2.75;1.98;;;16.30;55.40;;;;;;4973826;28;20218;-59
2022/05/12 11:59:45;;;;;;;3.58;2.05;;;16.30;55.40;;;;;;4989740;28;20308;-58
2022/05/12 12:02:43;;;;;;;3.58;2.20;;;16.30;55.50;;;;;;4990989;28;20198;-58
2022/05/12 12:05:36;;;;;;;3.08;2.10;;;16.30;55.50;;;;;;4990337;28;20787;-59
2022/05/12 12:08:10;;;;;;;2.72;1.63;;;16.20;55.40;;;;;;4991284;28;20208;-58
2022/05/12 12:10:43;;;;;;;3.08;1.92;;;16.20;55.40;;;;;;4990954;28;20682;-58
2022/05/12 12:13:35;;;;;;;5.22;2.42;;;16.20;55.50;;;;;;4990491;28;20303;-60
2022/05/12 12:16:11;;;;;;;2.92;1.80;;;16.20;55.50;;;;;;4970990;28;20198;-59
2022/05/12 12:19:06;;;;;;;3.67;2.08;;;16.20;55.50;;;;;;4970712;28;20428;-59
2022/05/12 12:22:04;;;;;;;2.42;2.00;;;16.20;56.10;;;;;;4975749;28;20251;-59
2022/05/12 12:25:06;;;;;;;4.93;2.45;;;16.20;55.60;;;;;;4973571;28;20303;-60
2022/05/12 12:28:15;;;;;;;5.25;2.15;;;16.10;55.50;;;;;;4990677;28;20645;-60
2022/05/12 12:31:24;;;;;;;3.90;2.15;;;16.20;55.60;;;;;;4990331;28;20240;-58
2022/05/12 12:34:14;;;;;;;3.35;2.03;;;16.10;55.50;;;;;;4990233;28;20229;-59
2022/05/12 12:36:59;;;;;;;4.53;2.42;;;16.10;55.50;;;;;;4990049;28;20283;-58
2022/05/12 12:39:50;;;;;;;3.80;2.25;;;16.10;55.50;;;;;;4990699;28;20217;-59
2022/05/12 12:42:33;;;;;;;5.25;2.60;;;16.10;55.60;;;;;;4990198;28;20708;-59
2022/05/12 12:45:10;;;;;;;6.43;2.50;;;16.10;55.60;;;;;;4990007;28;20312;-58
2022/05/12 12:47:54;;;;;;;5.00;2.30;;;16.10;55.60;;;;;;4990542;28;20197;-59
2022/05/12 12:50:44;;;;;;;4.30;2.55;;;16.00;55.60;;;;;;4990296;28;20233;-59
2022/05/12 12:56:35;;;;;;;4.20;2.53;;;16.10;55.60;;;;;;4989032;28;20646;-59
2022/05/12 12:59:08;;;;;;;3.80;2.60;;;16.00;55.60;;;;;;4989742;28;20649;-59
2022/05/12 13:01:53;;;;;;;7.65;3.08;;;16.00;55.50;;;;;;4990389;28;20198;-59
2022/05/12 13:04:27;;;;;;;6.95;2.70;;;16.00;55.60;;;;;;4990532;28;20193;-59
2022/05/12 13:06:59;;;;;;;5.63;2.55;;;16.00;55.60;;;;;;4990714;28;20787;-59
2022/05/12 13:09:32;;;;;;;5.20;2.85;;;16.00;55.60;;;;;;4990159;28;20568;-59
2022/05/12 13:12:14;;;;;;;6.30;3.05;;;16.00;55.60;;;;;;4989867;28;20248;-59
2022/05/12 13:14:45;;;;;;;6.07;2.88;;;15.90;55.60;;;;;;4989233;28;20225;-59
2022/05/12 13:17:22;;;;;;;6.43;2.78;;;16.00;55.60;;;;;;4990127;28;20197;-59
2022/05/12 13:19:56;;;;;;;5.43;2.80;;;15.90;55.60;;;;;;4990207;28;20849;-59
2022/05/12 13:22:29;;;;;;;5.72;2.90;;;15.90;55.60;;;;;;4989940;28;20197;-58
2022/05/12 13:25:00;;;;;;;4.05;2.63;;;15.90;55.60;;;;;;4989826;28;20229;-59
2022/05/12 13:27:35;;;;;;;6.70;3.15;;;15.90;55.60;;;;;;4990102;28;20193;-59
2022/05/12 13:30:07;;;;;;;7.45;3.15;;;15.90;55.60;;;;;;4989101;28;20228;-59
2022/05/12 13:32:40;;;;;;;8.52;3.03;;;15.90;55.60;;;;;;4990076;28;20202;-59
2022/05/12 13:35:19;;;;;;;5.00;2.38;;;15.90;55.60;;;;;;4990240;28;20233;-59
2022/05/12 13:37:55;;;;;;;6.63;2.85;;;15.80;55.60;;;;;;4990514;28;20599;-59
2022/05/12 13:40:44;;;;;;;5.93;2.83;;;15.80;55.60;;;;;;4990253;28;20213;-59
2022/05/12 13:43:24;;;;;;;6.10;2.92;;;15.80;55.60;;;;;;4989848;28;20201;-58
2022/05/12 13:46:11;;;;;;;5.55;2.50;;;15.80;55.60;;;;;;4989389;28;20201;-59
2022/05/12 13:48:57;;;;;;;5.25;3.10;;;15.80;55.60;;;;;;4990660;28;20252;-59
2022/05/12 13:51:52;;;;;;;3.97;2.63;;;15.70;55.60;;;;;;4993151;28;20256;-59
2022/05/12 13:54:29;;;;;;;6.95;2.95;;;15.80;55.60;;;;;;4993135;28;20232;-59